sensor_id;sensor_type;location;lat;lon;timestamp;pressure;altitude;pressure_sealevel;temperature;humidity
24486;BME280;13449;49.374;8.584;2023-02-17T00:03:40;101341.28;;;9.23;76.50
24486;BME280;13449;49.374;8.584;2023-02-17T00:06:09;101346.56;;;9.25;75.77
24486;BME280;13449;49.374;8.584;2023-02-17T00:08:41;101323.88;;;9.16;77.34
24486;BME280;13449;49.374;8.584;2023-02-17T00:11:08;101336.69;;;9.23;76.47
24486;BME280;13449;49.374;8.584;2023-02-17T00:13:39;101324.59;;;9.18;77.46
24486;BME280;13449;49.374;8.584;2023-02-17T00:16:31;101322.88;;;9.17;77.02
24486;BME280;13449;49.374;8.584;2023-02-17T00:19:00;101319.13;;;9.18;77.31
24486;BME280;13449;49.374;8.584;2023-02-17T00:21:30;101330.72;;;9.20;76.59
24486;BME280;13449;49.374;8.584;2023-02-17T00:23:57;101317.75;;;9.14;77.79
24486;BME280;13449;49.374;8.584;2023-02-17T00:26:25;101319.91;;;9.28;76.48
24486;BME280;13449;49.374;8.584;2023-02-17T00:28:51;101304.22;;;9.22;78.53
24486;BME280;13449;49.374;8.584;2023-02-17T00:31:21;101305.38;;;9.19;80.94
24486;BME280;13449;49.374;8.584;2023-02-17T00:33:48;101310.25;;;9.16;80.96
24486;BME280;13449;49.374;8.584;2023-02-17T00:36:18;101311.75;;;9.10;83.04
24486;BME280;13449;49.374;8.584;2023-02-17T00:38:47;101308.78;;;9.04;85.35
24486;BME280;13449;49.374;8.584;2023-02-17T00:41:18;101321.06;;;9.08;83.41
24486;BME280;13449;49.374;8.584;2023-02-17T00:44:01;101321.56;;;9.03;83.99
24486;BME280;13449;49.374;8.584;2023-02-17T00:46:27;101321.56;;;9.03;83.22
24486;BME280;13449;49.374;8.584;2023-02-17T00:48:58;101333.66;;;9.09;82.53
24486;BME280;13449;49.374;8.584;2023-02-17T00:51:28;101325.28;;;9.02;83.45
24486;BME280;13449;49.374;8.584;2023-02-17T00:53:54;101328.31;;;8.99;84.03
24486;BME280;13449;49.374;8.584;2023-02-17T00:56:29;101319.63;;;8.96;84.28
24486;BME280;13449;49.374;8.584;2023-02-17T00:58:55;101330.78;;;8.93;83.99
24486;BME280;13449;49.374;8.584;2023-02-17T01:01:22;101322.63;;;8.93;84.24
24486;BME280;13449;49.374;8.584;2023-02-17T01:03:52;101321.78;;;8.92;83.14
24486;BME280;13449;49.374;8.584;2023-02-17T01:06:26;101318.22;;;8.92;83.50
24486;BME280;13449;49.374;8.584;2023-02-17T01:08:54;101322.47;;;8.94;82.53
24486;BME280;13449;49.374;8.584;2023-02-17T01:11:23;101326.06;;;8.95;81.88
24486;BME280;13449;49.374;8.584;2023-02-17T01:13:50;101324.66;;;8.91;82.04
24486;BME280;13449;49.374;8.584;2023-02-17T01:16:24;101322.25;;;8.88;82.67
24486;BME280;13449;49.374;8.584;2023-02-17T01:18:55;101331.94;;;8.90;82.28
24486;BME280;13449;49.374;8.584;2023-02-17T01:21:27;101331.72;;;8.84;82.58
24486;BME280;13449;49.374;8.584;2023-02-17T01:23:58;101335.44;;;8.83;82.38
24486;BME280;13449;49.374;8.584;2023-02-17T01:26:29;101327.78;;;8.96;80.57
24486;BME280;13449;49.374;8.584;2023-02-17T01:29:06;101311.97;;;8.82;83.37
24486;BME280;13449;49.374;8.584;2023-02-17T01:31:34;101296.75;;;8.89;82.25
24486;BME280;13449;49.374;8.584;2023-02-17T01:34:02;101302.94;;;8.81;82.28
24486;BME280;13449;49.374;8.584;2023-02-17T01:36:29;101299.00;;;8.76;82.41
24486;BME280;13449;49.374;8.584;2023-02-17T01:38:56;101286.09;;;8.78;82.70
24486;BME280;13449;49.374;8.584;2023-02-17T01:41:25;101297.78;;;8.88;82.73
24486;BME280;13449;49.374;8.584;2023-02-17T01:44:08;101293.72;;;9.09;81.82
24486;BME280;13449;49.374;8.584;2023-02-17T01:46:39;101286.75;;;9.07;82.41
24486;BME280;13449;49.374;8.584;2023-02-17T01:49:36;101288.97;;;9.29;81.84
24486;BME280;13449;49.374;8.584;2023-02-17T01:52:32;101292.28;;;9.66;80.70
24486;BME280;13449;49.374;8.584;2023-02-17T01:55:06;101291.59;;;9.64;80.22
24486;BME280;13449;49.374;8.584;2023-02-17T01:57:36;101292.81;;;9.70;79.98
24486;BME280;13449;49.374;8.584;2023-02-17T02:00:05;101288.38;;;9.69;80.46
24486;BME280;13449;49.374;8.584;2023-02-17T02:02:32;101298.59;;;9.93;79.22
24486;BME280;13449;49.374;8.584;2023-02-17T02:04:59;101297.19;;;9.89;79.69
24486;BME280;13449;49.374;8.584;2023-02-17T02:07:30;101284.78;;;9.94;79.28
24486;BME280;13449;49.374;8.584;2023-02-17T02:09:58;101286.44;;;9.87;79.50
24486;BME280;13449;49.374;8.584;2023-02-17T02:12:38;101289.50;;;9.84;80.00
24486;BME280;13449;49.374;8.584;2023-02-17T02:15:17;101287.59;;;9.77;80.29
24486;BME280;13449;49.374;8.584;2023-02-17T02:32:35;101282.72;;;9.62;80.90
24486;BME280;13449;49.374;8.584;2023-02-17T02:35:12;101271.13;;;9.60;81.48
24486;BME280;13449;49.374;8.584;2023-02-17T02:40:30;101273.50;;;9.55;81.54
24486;BME280;13449;49.374;8.584;2023-02-17T02:43:02;101263.63;;;9.54;81.65
24486;BME280;13449;49.374;8.584;2023-02-17T02:45:29;101260.91;;;9.54;81.74
24486;BME280;13449;49.374;8.584;2023-02-17T02:47:58;101263.16;;;9.59;81.57
24486;BME280;13449;49.374;8.584;2023-02-17T02:56:02;101254.66;;;9.62;81.79
24486;BME280;13449;49.374;8.584;2023-02-17T03:07:10;101238.47;;;9.60;83.61
24486;BME280;13449;49.374;8.584;2023-02-17T03:09:49;101240.19;;;9.61;84.24
24486;BME280;13449;49.374;8.584;2023-02-17T03:12:19;101237.84;;;9.66;84.54
24486;BME280;13449;49.374;8.584;2023-02-17T03:14:53;101227.19;;;9.81;84.95
24486;BME280;13449;49.374;8.584;2023-02-17T03:17:24;101228.03;;;9.82;85.03
24486;BME280;13449;49.374;8.584;2023-02-17T03:19:50;101224.69;;;9.96;84.83
24486;BME280;13449;49.374;8.584;2023-02-17T03:22:21;101225.88;;;10.01;84.88
24486;BME280;13449;49.374;8.584;2023-02-17T03:24:50;101232.94;;;10.12;84.78
24486;BME280;13449;49.374;8.584;2023-02-17T03:27:16;101233.63;;;10.14;85.16
24486;BME280;13449;49.374;8.584;2023-02-17T03:29:43;101228.56;;;10.19;85.48
24486;BME280;13449;49.374;8.584;2023-02-17T03:32:10;101237.41;;;10.21;85.42
24486;BME280;13449;49.374;8.584;2023-02-17T03:34:37;101224.34;;;10.33;85.08
24486;BME280;13449;49.374;8.584;2023-02-17T03:37:03;101224.69;;;10.30;85.22
24486;BME280;13449;49.374;8.584;2023-02-17T03:39:30;101222.97;;;10.29;85.42
24486;BME280;13449;49.374;8.584;2023-02-17T03:42:02;101219.03;;;10.23;85.80
24486;BME280;13449;49.374;8.584;2023-02-17T03:44:29;101217.00;;;10.25;85.98
24486;BME280;13449;49.374;8.584;2023-02-17T03:47:02;101218.22;;;10.31;85.58
24486;BME280;13449;49.374;8.584;2023-02-17T03:49:31;101212.06;;;10.29;85.65
24486;BME280;13449;49.374;8.584;2023-02-17T03:52:00;101209.53;;;10.27;86.00
24486;BME280;13449;49.374;8.584;2023-02-17T03:54:27;101225.53;;;10.30;85.67
24486;BME280;13449;49.374;8.584;2023-02-17T03:56:53;101212.91;;;10.29;86.08
24486;BME280;13449;49.374;8.584;2023-02-17T03:59:39;101207.84;;;10.34;85.84
24486;BME280;13449;49.374;8.584;2023-02-17T04:02:08;101202.53;;;10.33;85.79
24486;BME280;13449;49.374;8.584;2023-02-17T04:04:35;101220.09;;;10.30;85.87
24486;BME280;13449;49.374;8.584;2023-02-17T04:07:02;101219.56;;;10.27;86.32
24486;BME280;13449;49.374;8.584;2023-02-17T04:09:28;101227.03;;;10.25;86.74
24486;BME280;13449;49.374;8.584;2023-02-17T04:11:55;101229.59;;;10.26;86.75
24486;BME280;13449;49.374;8.584;2023-02-17T04:14:21;101232.03;;;10.37;86.32
24486;BME280;13449;49.374;8.584;2023-02-17T04:16:47;101227.06;;;10.33;86.72
24486;BME280;13449;49.374;8.584;2023-02-17T04:19:14;101232.38;;;10.34;86.43
24486;BME280;13449;49.374;8.584;2023-02-17T04:21:40;101231.00;;;10.38;86.21
24486;BME280;13449;49.374;8.584;2023-02-17T04:24:07;101241.56;;;10.33;86.51
24486;BME280;13449;49.374;8.584;2023-02-17T04:26:33;101234.03;;;10.35;86.47
24486;BME280;13449;49.374;8.584;2023-02-17T04:29:02;101233.19;;;10.27;87.15
24486;BME280;13449;49.374;8.584;2023-02-17T04:31:32;101233.22;;;10.35;86.31
24486;BME280;13449;49.374;8.584;2023-02-17T04:33:59;101234.03;;;10.35;86.22
24486;BME280;13449;49.374;8.584;2023-02-17T04:36:25;101241.56;;;10.33;86.16
24486;BME280;13449;49.374;8.584;2023-02-17T04:38:52;101240.34;;;10.36;86.14
24486;BME280;13449;49.374;8.584;2023-02-17T04:41:21;101247.69;;;10.43;85.34
24486;BME280;13449;49.374;8.584;2023-02-17T04:43:47;101248.19;;;10.39;85.69
24486;BME280;13449;49.374;8.584;2023-02-17T04:46:14;101244.94;;;10.35;86.18
24486;BME280;13449;49.374;8.584;2023-02-17T04:48:41;101252.47;;;10.33;86.06
24486;BME280;13449;49.374;8.584;2023-02-17T04:51:07;101250.78;;;10.40;85.65
24486;BME280;13449;49.374;8.584;2023-02-17T04:53:36;101248.00;;;10.32;85.96
24486;BME280;13449;49.374;8.584;2023-02-17T04:56:03;101247.69;;;10.27;86.26
24486;BME280;13449;49.374;8.584;2023-02-17T04:58:30;101249.69;;;10.25;86.63
24486;BME280;13449;49.374;8.584;2023-02-17T05:00:58;101259.06;;;10.23;86.92
24486;BME280;13449;49.374;8.584;2023-02-17T05:03:27;101245.09;;;10.26;86.91
24486;BME280;13449;49.374;8.584;2023-02-17T05:05:56;101244.41;;;10.24;87.09
24486;BME280;13449;49.374;8.584;2023-02-17T05:08:23;101239.47;;;10.19;87.97
24486;BME280;13449;49.374;8.584;2023-02-17T05:10:51;101244.59;;;10.22;87.70
24486;BME280;13449;49.374;8.584;2023-02-17T05:13:20;101238.59;;;10.18;88.12
24486;BME280;13449;49.374;8.584;2023-02-17T05:15:47;101242.88;;;10.21;88.43
24486;BME280;13449;49.374;8.584;2023-02-17T05:18:13;101236.59;;;10.29;88.30
24486;BME280;13449;49.374;8.584;2023-02-17T05:20:42;101247.78;;;10.17;89.15
24486;BME280;13449;49.374;8.584;2023-02-17T05:23:11;101245.78;;;10.20;89.22
24486;BME280;13449;49.374;8.584;2023-02-17T05:25:37;101246.94;;;10.17;89.32
24486;BME280;13449;49.374;8.584;2023-02-17T05:28:06;101254.63;;;10.22;89.59
24486;BME280;13449;49.374;8.584;2023-02-17T05:30:33;101250.66;;;10.16;90.23
24486;BME280;13449;49.374;8.584;2023-02-17T05:33:00;101254.09;;;10.18;90.81
24486;BME280;13449;49.374;8.584;2023-02-17T05:35:26;101245.59;;;10.21;90.42
24486;BME280;13449;49.374;8.584;2023-02-17T05:37:53;101264.16;;;10.17;91.35
24486;BME280;13449;49.374;8.584;2023-02-17T05:40:19;101260.34;;;10.10;91.77
24486;BME280;13449;49.374;8.584;2023-02-17T05:42:49;101266.88;;;10.17;91.55
24486;BME280;13449;49.374;8.584;2023-02-17T05:45:18;101264.84;;;10.20;91.88
24486;BME280;13449;49.374;8.584;2023-02-17T05:47:44;101261.28;;;10.19;92.05
24486;BME280;13449;49.374;8.584;2023-02-17T05:50:13;101265.34;;;10.15;92.18
24486;BME280;13449;49.374;8.584;2023-02-17T05:52:40;101261.88;;;10.13;92.32
24486;BME280;13449;49.374;8.584;2023-02-17T05:55:09;101268.41;;;10.20;92.32
24486;BME280;13449;49.374;8.584;2023-02-17T05:57:35;101271.78;;;10.14;92.70
24486;BME280;13449;49.374;8.584;2023-02-17T06:00:05;101268.94;;;10.15;93.09
24486;BME280;13449;49.374;8.584;2023-02-17T06:02:31;101265.16;;;10.16;93.37
24486;BME280;13449;49.374;8.584;2023-02-17T06:04:58;101271.47;;;10.17;93.28
24486;BME280;13449;49.374;8.584;2023-02-17T06:07:25;101262.06;;;10.11;93.74
24486;BME280;13449;49.374;8.584;2023-02-17T06:09:55;101274.97;;;10.09;93.97
24486;BME280;13449;49.374;8.584;2023-02-17T06:12:24;101269.53;;;10.09;94.72
24486;BME280;13449;49.374;8.584;2023-02-17T06:14:53;101284.34;;;10.07;94.59
24486;BME280;13449;49.374;8.584;2023-02-17T06:17:19;101286.06;;;10.08;95.10
24486;BME280;13449;49.374;8.584;2023-02-17T06:19:47;101281.25;;;10.02;95.73
24486;BME280;13449;49.374;8.584;2023-02-17T06:22:17;101283.44;;;9.98;96.44
24486;BME280;13449;49.374;8.584;2023-02-17T06:24:44;101294.19;;;10.00;96.51
24486;BME280;13449;49.374;8.584;2023-02-17T06:27:10;101280.38;;;10.01;96.28
24486;BME280;13449;49.374;8.584;2023-02-17T06:29:36;101281.09;;;10.03;96.85
24486;BME280;13449;49.374;8.584;2023-02-17T06:32:03;101284.69;;;10.04;96.97
24486;BME280;13449;49.374;8.584;2023-02-17T06:34:39;101284.69;;;10.04;96.67
24486;BME280;13449;49.374;8.584;2023-02-17T06:37:15;101299.84;;;10.06;96.93
24486;BME280;13449;49.374;8.584;2023-02-17T06:39:42;101294.38;;;10.06;96.79
24486;BME280;13449;49.374;8.584;2023-02-17T06:42:08;101291.50;;;10.08;97.35
24486;BME280;13449;49.374;8.584;2023-02-17T06:44:35;101294.22;;;10.08;97.09
24486;BME280;13449;49.374;8.584;2023-02-17T06:47:04;101288.06;;;10.06;97.29
24486;BME280;13449;49.374;8.584;2023-02-17T06:49:33;101287.06;;;10.07;97.59
24486;BME280;13449;49.374;8.584;2023-02-17T06:51:59;101289.47;;;10.10;97.76
24486;BME280;13449;49.374;8.584;2023-02-17T06:54:26;101287.75;;;10.09;98.12
24486;BME280;13449;49.374;8.584;2023-02-17T06:56:52;101293.19;;;10.09;98.36
24486;BME280;13449;49.374;8.584;2023-02-17T06:59:21;101291.50;;;10.08;98.44
24486;BME280;13449;49.374;8.584;2023-02-17T07:01:48;101299.97;;;10.05;99.16
24486;BME280;13449;49.374;8.584;2023-02-17T07:04:16;101292.00;;;10.03;99.49
24486;BME280;13449;49.374;8.584;2023-02-17T07:06:42;101298.97;;;10.06;99.47
24486;BME280;13449;49.374;8.584;2023-02-17T07:09:12;101293.53;;;10.06;99.70
24486;BME280;13449;49.374;8.584;2023-02-17T07:11:43;101303.28;;;10.08;99.62
24486;BME280;13449;49.374;8.584;2023-02-17T07:14:10;101290.47;;;10.09;99.82
24486;BME280;13449;49.374;8.584;2023-02-17T07:16:36;101292.66;;;10.05;99.81
24486;BME280;13449;49.374;8.584;2023-02-17T07:19:04;101299.50;;;10.09;100.00
24486;BME280;13449;49.374;8.584;2023-02-17T07:21:33;101305.81;;;10.10;100.00
24486;BME280;13449;49.374;8.584;2023-02-17T07:24:02;101313.31;;;10.08;100.00
24486;BME280;13449;49.374;8.584;2023-02-17T07:26:37;101311.59;;;10.07;100.00
24486;BME280;13449;49.374;8.584;2023-02-17T07:29:05;101313.59;;;10.05;100.00
24486;BME280;13449;49.374;8.584;2023-02-17T07:31:38;101329.97;;;10.05;100.00
24486;BME280;13449;49.374;8.584;2023-02-17T07:34:04;101326.94;;;10.08;100.00
24486;BME280;13449;49.374;8.584;2023-02-17T07:36:40;101328.63;;;10.09;100.00
24486;BME280;13449;49.374;8.584;2023-02-17T07:39:07;101329.66;;;10.08;100.00
24486;BME280;13449;49.374;8.584;2023-02-17T07:41:33;101327.22;;;10.05;100.00
24486;BME280;13449;49.374;8.584;2023-02-17T07:44:06;101332.53;;;10.06;100.00
24486;BME280;13449;49.374;8.584;2023-02-17T07:46:37;101335.09;;;10.08;100.00
24486;BME280;13449;49.374;8.584;2023-02-17T07:49:09;101336.78;;;10.09;100.00
24486;BME280;13449;49.374;8.584;2023-02-17T07:51:42;101347.69;;;10.09;100.00
24486;BME280;13449;49.374;8.584;2023-02-17T07:54:26;101342.25;;;10.09;100.00
24486;BME280;13449;49.374;8.584;2023-02-17T07:56:55;101336.25;;;10.05;100.00
24486;BME280;13449;49.374;8.584;2023-02-17T07:59:35;101342.94;;;10.11;100.00
24486;BME280;13449;49.374;8.584;2023-02-17T08:02:02;101338.91;;;10.15;100.00
24486;BME280;13449;49.374;8.584;2023-02-17T08:04:29;101332.44;;;10.16;100.00
24486;BME280;13449;49.374;8.584;2023-02-17T08:06:55;101320.81;;;10.14;100.00
24486;BME280;13449;49.374;8.584;2023-02-17T08:09:22;101315.06;;;10.17;100.00
24486;BME280;13449;49.374;8.584;2023-02-17T08:12:15;101313.94;;;10.28;99.99
24486;BME280;13449;49.374;8.584;2023-02-17T08:15:12;101322.97;;;10.28;99.93
24486;BME280;13449;49.374;8.584;2023-02-17T08:17:46;101314.63;;;10.30;99.99
24486;BME280;13449;49.374;8.584;2023-02-17T08:20:19;101315.50;;;10.30;99.82
24486;BME280;13449;49.374;8.584;2023-02-17T08:22:48;101317.72;;;10.35;99.32
24486;BME280;13449;49.374;8.584;2023-02-17T08:25:20;101309.56;;;10.43;99.33
24486;BME280;13449;49.374;8.584;2023-02-17T08:27:46;101311.97;;;10.46;99.31
24486;BME280;13449;49.374;8.584;2023-02-17T08:30:20;101326.28;;;10.48;98.98
24486;BME280;13449;49.374;8.584;2023-02-17T08:33:09;101327.66;;;10.52;98.76
24486;BME280;13449;49.374;8.584;2023-02-17T08:35:43;101336.72;;;10.52;98.58
24486;BME280;13449;49.374;8.584;2023-02-17T08:38:12;101349.34;;;10.53;98.85
24486;BME280;13449;49.374;8.584;2023-02-17T08:40:42;101339.44;;;10.52;98.92
24486;BME280;13449;49.374;8.584;2023-02-17T08:43:17;101334.31;;;10.57;98.20
24486;BME280;13449;49.374;8.584;2023-02-17T08:45:51;101343.53;;;10.56;99.01
24486;BME280;13449;49.374;8.584;2023-02-17T08:48:18;101343.53;;;10.56;98.56
24486;BME280;13449;49.374;8.584;2023-02-17T08:50:46;101337.03;;;10.57;98.99
24486;BME280;13449;49.374;8.584;2023-02-17T08:53:13;101349.34;;;10.61;98.88
24486;BME280;13449;49.374;8.584;2023-02-17T08:55:40;101355.50;;;10.63;98.45
24486;BME280;13449;49.374;8.584;2023-02-17T08:58:15;101345.44;;;10.64;98.63
24486;BME280;13449;49.374;8.584;2023-02-17T09:00:49;101347.31;;;10.63;98.74
24486;BME280;13449;49.374;8.584;2023-02-17T09:03:18;101341.84;;;10.63;98.81
24486;BME280;13449;49.374;8.584;2023-02-17T09:05:55;101340.00;;;10.64;98.76
24486;BME280;13449;49.374;8.584;2023-02-17T09:08:32;101338.78;;;10.66;98.58
24486;BME280;13449;49.374;8.584;2023-02-17T09:11:02;101336.94;;;10.67;98.84
24486;BME280;13449;49.374;8.584;2023-02-17T09:13:38;101337.78;;;10.68;98.62
24486;BME280;13449;49.374;8.584;2023-02-17T09:16:08;101322.44;;;10.66;98.68
24486;BME280;13449;49.374;8.584;2023-02-17T09:18:35;101327.53;;;10.70;98.86
24486;BME280;13449;49.374;8.584;2023-02-17T09:21:10;101324.81;;;10.70;98.98
24486;BME280;13449;49.374;8.584;2023-02-17T09:23:40;101332.66;;;10.73;99.20
24486;BME280;13449;49.374;8.584;2023-02-17T09:26:14;101333.03;;;10.78;98.80
24486;BME280;13449;49.374;8.584;2023-02-17T09:28:54;101331.31;;;10.77;99.17
24486;BME280;13449;49.374;8.584;2023-02-17T09:31:25;101325.38;;;10.81;98.71
24486;BME280;13449;49.374;8.584;2023-02-17T09:33:52;101327.06;;;10.82;98.95
24486;BME280;13449;49.374;8.584;2023-02-17T09:36:27;101339.88;;;10.82;99.29
24486;BME280;13449;49.374;8.584;2023-02-17T09:38:57;101348.53;;;10.77;99.32
24486;BME280;13449;49.374;8.584;2023-02-17T09:41:49;101342.09;;;10.86;98.93
24486;BME280;13449;49.374;8.584;2023-02-17T09:44:38;101335.09;;;10.92;98.91
24486;BME280;13449;49.374;8.584;2023-02-17T09:47:24;101339.53;;;10.93;98.97
24486;BME280;13449;49.374;8.584;2023-02-17T09:50:00;101321.97;;;10.95;99.00
24486;BME280;13449;49.374;8.584;2023-02-17T09:52:35;101315.66;;;10.95;99.05
24486;BME280;13449;49.374;8.584;2023-02-17T09:55:09;101315.00;;;11.01;98.15
24486;BME280;13449;49.374;8.584;2023-02-17T10:00:28;101317.72;;;11.01;98.73
24486;BME280;13449;49.374;8.584;2023-02-17T10:03:21;101321.16;;;11.11;97.92
24486;BME280;13449;49.374;8.584;2023-02-17T10:09:22;101318.75;;;11.40;96.79
24486;BME280;13449;49.374;8.584;2023-02-17T10:12:00;101323.22;;;11.57;95.71
24486;BME280;13449;49.374;8.584;2023-02-17T10:14:35;101339.41;;;11.67;94.87
24486;BME280;13449;49.374;8.584;2023-02-17T10:22:35;101325.25;;;11.63;95.34
24486;BME280;13449;49.374;8.584;2023-02-17T10:25:15;101329.34;;;11.59;96.19
24486;BME280;13449;49.374;8.584;2023-02-17T10:30:29;101329.34;;;11.59;96.70
24486;BME280;13449;49.374;8.584;2023-02-17T10:39:14;101351.91;;;11.61;95.71
24486;BME280;13449;49.374;8.584;2023-02-17T10:41:49;101360.94;;;11.62;96.05
24486;BME280;13449;49.374;8.584;2023-02-17T10:44:18;101358.22;;;11.62;95.38
24486;BME280;13449;49.374;8.584;2023-02-17T10:46:46;101348.81;;;11.64;94.84
24486;BME280;13449;49.374;8.584;2023-02-17T10:51:48;101358.53;;;11.67;94.83
24486;BME280;13449;49.374;8.584;2023-02-17T10:54:36;101370.16;;;11.69;94.74
24486;BME280;13449;49.374;8.584;2023-02-17T10:57:08;101369.13;;;11.70;94.33
24486;BME280;13449;49.374;8.584;2023-02-17T10:59:41;101369.00;;;11.72;94.48
24486;BME280;13449;49.374;8.584;2023-02-17T11:02:18;101354.13;;;11.74;94.21
24486;BME280;13449;49.374;8.584;2023-02-17T11:04:48;101361.81;;;11.79;93.81
24486;BME280;13449;49.374;8.584;2023-02-17T11:07:18;101359.06;;;11.87;93.21
24486;BME280;13449;49.374;8.584;2023-02-17T11:09:50;101350.34;;;11.91;93.04
24486;BME280;13449;49.374;8.584;2023-02-17T11:12:28;101354.97;;;11.99;91.91
24486;BME280;13449;49.374;8.584;2023-02-17T11:15:03;101342.97;;;12.00;91.52
24486;BME280;13449;49.374;8.584;2023-02-17T11:17:36;101342.81;;;12.01;91.26
24486;BME280;13449;49.374;8.584;2023-02-17T11:25:32;101333.88;;;12.16;91.52
24486;BME280;13449;49.374;8.584;2023-02-17T11:28:11;101337.81;;;12.21;91.44
24486;BME280;13449;49.374;8.584;2023-02-17T11:30:39;101333.00;;;12.23;90.91
24486;BME280;13449;49.374;8.584;2023-02-17T11:33:29;101336.56;;;12.32;90.73
24486;BME280;13449;49.374;8.584;2023-02-17T11:36:04;101330.75;;;12.35;90.25
24486;BME280;13449;49.374;8.584;2023-02-17T11:38:41;101337.72;;;12.37;89.97
24486;BME280;13449;49.374;8.584;2023-02-17T11:41:22;101328.69;;;12.37;89.41
24486;BME280;13449;49.374;8.584;2023-02-17T11:44:09;101336.91;;;12.37;89.25
24486;BME280;13449;49.374;8.584;2023-02-17T11:47:12;101328.69;;;12.37;89.68
24486;BME280;13449;49.374;8.584;2023-02-17T11:50:10;101322.88;;;12.40;90.02
24486;BME280;13449;49.374;8.584;2023-02-17T12:00:52;101317.22;;;12.41;89.91
24486;BME280;13449;49.374;8.584;2023-02-17T12:06:32;101310.69;;;12.50;88.22
24486;BME280;13449;49.374;8.584;2023-02-17T12:12:15;101312.56;;;12.50;89.34
24486;BME280;13449;49.374;8.584;2023-02-17T12:15:06;101313.41;;;12.50;89.57
24486;BME280;13449;49.374;8.584;2023-02-17T12:18:08;101310.31;;;12.53;89.55
24486;BME280;13449;49.374;8.584;2023-02-17T12:20:53;101316.81;;;12.52;88.83
24486;BME280;13449;49.374;8.584;2023-02-17T12:23:50;101308.94;;;12.57;89.11
24486;BME280;13449;49.374;8.584;2023-02-17T12:26:43;101311.00;;;12.55;88.84
24486;BME280;13449;49.374;8.584;2023-02-17T12:38:00;101306.69;;;12.92;87.92
24486;BME280;13449;49.374;8.584;2023-02-17T12:43:35;101309.94;;;13.18;85.99
24486;BME280;13449;49.374;8.584;2023-02-17T12:46:19;101316.50;;;13.32;85.99
24486;BME280;13449;49.374;8.584;2023-02-17T12:49:02;101303.91;;;13.45;84.97
24486;BME280;13449;49.374;8.584;2023-02-17T12:51:39;101308.34;;;13.46;85.82
24486;BME280;13449;49.374;8.584;2023-02-17T12:54:30;101299.78;;;13.49;84.63
24486;BME280;13449;49.374;8.584;2023-02-17T12:57:05;101312.78;;;13.47;84.64
24486;BME280;13449;49.374;8.584;2023-02-17T13:00:05;101310.59;;;13.43;84.72
24486;BME280;13449;49.374;8.584;2023-02-17T13:02:39;101295.75;;;13.37;85.22
24486;BME280;13449;49.374;8.584;2023-02-17T13:05:18;101303.03;;;13.30;86.25
24486;BME280;13449;49.374;8.584;2023-02-17T13:08:16;101296.19;;;13.26;86.02
24486;BME280;13449;49.374;8.584;2023-02-17T13:10:44;101307.44;;;13.31;86.26
24486;BME280;13449;49.374;8.584;2023-02-17T13:13:33;101314.16;;;13.29;85.75
24486;BME280;13449;49.374;8.584;2023-02-17T13:16:06;101298.31;;;13.39;86.13
24486;BME280;13449;49.374;8.584;2023-02-17T13:18:43;101294.78;;;13.53;85.05
24486;BME280;13449;49.374;8.584;2023-02-17T13:26:53;101274.38;;;13.70;84.20
24486;BME280;13449;49.374;8.584;2023-02-17T13:29:32;101281.13;;;13.82;83.28
24486;BME280;13449;49.374;8.584;2023-02-17T13:32:06;101271.09;;;13.75;83.80
24486;BME280;13449;49.374;8.584;2023-02-17T13:34:39;101266.16;;;13.70;83.61
24486;BME280;13449;49.374;8.584;2023-02-17T13:40:01;101251.97;;;13.67;83.80
24486;BME280;13449;49.374;8.584;2023-02-17T13:47:46;101258.53;;;13.43;84.83
24486;BME280;13449;49.374;8.584;2023-02-17T13:50:34;101246.47;;;13.37;84.93
24486;BME280;13449;49.374;8.584;2023-02-17T13:53:18;101258.59;;;13.35;85.38
24486;BME280;13449;49.374;8.584;2023-02-17T13:55:52;101257.16;;;13.24;85.50
24486;BME280;13449;49.374;8.584;2023-02-17T13:58:33;101261.31;;;13.20;86.16
24486;BME280;13449;49.374;8.584;2023-02-17T14:01:01;101256.31;;;13.24;86.30
24486;BME280;13449;49.374;8.584;2023-02-17T14:06:08;101255.47;;;13.00;86.86
24486;BME280;13449;49.374;8.584;2023-02-17T14:08:37;101261.13;;;12.99;86.89
24486;BME280;13449;49.374;8.584;2023-02-17T14:11:11;101255.69;;;12.91;87.72
24486;BME280;13449;49.374;8.584;2023-02-17T14:13:43;101260.03;;;12.85;87.89
24486;BME280;13449;49.374;8.584;2023-02-17T14:19:10;101257.56;;;12.90;87.96
24486;BME280;13449;49.374;8.584;2023-02-17T14:21:58;101256.25;;;12.86;88.07
24486;BME280;13449;49.374;8.584;2023-02-17T14:24:30;101262.19;;;12.90;88.38
24486;BME280;13449;49.374;8.584;2023-02-17T14:27:02;101262.94;;;12.84;88.48
24486;BME280;13449;49.374;8.584;2023-02-17T14:29:45;101266.03;;;12.81;88.26
24486;BME280;13449;49.374;8.584;2023-02-17T14:32:35;101268.78;;;12.81;89.15
24486;BME280;13449;49.374;8.584;2023-02-17T14:37:40;101263.09;;;12.82;88.94
24486;BME280;13449;49.374;8.584;2023-02-17T14:40:16;101267.19;;;12.86;88.91
24486;BME280;13449;49.374;8.584;2023-02-17T14:42:44;101260.53;;;12.89;88.39
24486;BME280;13449;49.374;8.584;2023-02-17T14:45:11;101251.06;;;12.91;88.57
24486;BME280;13449;49.374;8.584;2023-02-17T14:47:38;101251.81;;;12.85;88.93
24486;BME280;13449;49.374;8.584;2023-02-17T14:50:04;101239.31;;;12.83;88.93
24486;BME280;13449;49.374;8.584;2023-02-17T14:52:39;101235.13;;;12.72;89.41
24486;BME280;13449;49.374;8.584;2023-02-17T14:55:34;101239.59;;;12.73;89.92
24486;BME280;13449;49.374;8.584;2023-02-17T14:58:04;101243.16;;;12.74;89.80
24486;BME280;13449;49.374;8.584;2023-02-17T15:00:35;101244.94;;;12.67;90.05
24486;BME280;13449;49.374;8.584;2023-02-17T15:03:04;101239.63;;;12.65;90.25
24486;BME280;13449;49.374;8.584;2023-02-17T15:05:33;101247.88;;;12.57;90.42
24486;BME280;13449;49.374;8.584;2023-02-17T15:08:03;101235.78;;;12.51;91.21
24486;BME280;13449;49.374;8.584;2023-02-17T15:10:33;101235.47;;;12.46;91.15